sensor_id;sensor_type;location;lat;lon;timestamp;pressure;altitude;pressure_sealevel;temperature;humidity
23574;BME280;11965;53.640;10.050;2023-04-28T00:00:35;101724.47;;;4.53;100.00
23574;BME280;11965;53.640;10.050;2023-04-28T00:03:02;101722.59;;;4.53;100.00
23574;BME280;11965;53.640;10.050;2023-04-28T00:05:29;101719.25;;;4.50;100.00
23574;BME280;11965;53.640;10.050;2023-04-28T00:07:56;101707.41;;;4.49;100.00
23574;BME280;11965;53.640;10.050;2023-04-28T00:10:23;101711.00;;;4.50;100.00
23574;BME280;11965;53.640;10.050;2023-04-28T00:12:51;101706.53;;;4.49;100.00
23574;BME280;11965;53.640;10.050;2023-04-28T00:15:18;101697.09;;;4.41;100.00
23574;BME280;11965;53.640;10.050;2023-04-28T00:17:44;101710.16;;;4.49;100.00
23574;BME280;11965;53.640;10.050;2023-04-28T00:20:11;101704.66;;;4.49;100.00
23574;BME280;11965;53.640;10.050;2023-04-28T00:22:38;101703.16;;;4.45;100.00
23574;BME280;11965;53.640;10.050;2023-04-28T00:25:06;101703.91;;;4.47;100.00
23574;BME280;11965;53.640;10.050;2023-04-28T00:27:33;101702.44;;;4.43;100.00
23574;BME280;11965;53.640;10.050;2023-04-28T00:30:01;101699.94;;;4.40;100.00
23574;BME280;11965;53.640;10.050;2023-04-28T00:32:28;101694.06;;;4.45;100.00
23574;BME280;11965;53.640;10.050;2023-04-28T00:34:56;101694.34;;;4.41;100.00
23574;BME280;11965;53.640;10.050;2023-04-28T00:37:25;101696.34;;;4.39;100.00
23574;BME280;11965;53.640;10.050;2023-04-28T00:39:55;101693.50;;;4.30;100.00
23574;BME280;11965;53.640;10.050;2023-04-28T00:42:22;101694.53;;;4.29;100.00
23574;BME280;11965;53.640;10.050;2023-04-28T00:44:50;101685.81;;;4.24;100.00
23574;BME280;11965;53.640;10.050;2023-04-28T00:47:18;101685.97;;;4.22;100.00
23574;BME280;11965;53.640;10.050;2023-04-28T00:49:45;101685.78;;;4.14;100.00
23574;BME280;11965;53.640;10.050;2023-04-28T00:52:14;101680.06;;;4.06;100.00
23574;BME280;11965;53.640;10.050;2023-04-28T00:54:43;101678.09;;;3.96;100.00
23574;BME280;11965;53.640;10.050;2023-04-28T00:57:12;101675.50;;;3.95;100.00
23574;BME280;11965;53.640;10.050;2023-04-28T00:59:39;101677.88;;;3.88;100.00
23574;BME280;11965;53.640;10.050;2023-04-28T01:02:06;101671.44;;;3.78;100.00
23574;BME280;11965;53.640;10.050;2023-04-28T01:04:35;101667.88;;;3.66;100.00
23574;BME280;11965;53.640;10.050;2023-04-28T01:07:03;101668.63;;;3.57;100.00
23574;BME280;11965;53.640;10.050;2023-04-28T01:09:30;101670.44;;;3.47;100.00
23574;BME280;11965;53.640;10.050;2023-04-28T01:11:57;101675.53;;;3.40;100.00
23574;BME280;11965;53.640;10.050;2023-04-28T01:14:36;101666.97;;;3.34;100.00
23574;BME280;11965;53.640;10.050;2023-04-28T01:17:05;101675.47;;;3.30;100.00
23574;BME280;11965;53.640;10.050;2023-04-28T01:19:35;101665.13;;;3.23;100.00
23574;BME280;11965;53.640;10.050;2023-04-28T01:22:02;101666.50;;;3.17;100.00
23574;BME280;11965;53.640;10.050;2023-04-28T01:24:30;101660.53;;;3.12;100.00
23574;BME280;11965;53.640;10.050;2023-04-28T01:27:02;101663.03;;;3.04;100.00
23574;BME280;11965;53.640;10.050;2023-04-28T01:29:29;101666.13;;;2.99;100.00
23574;BME280;11965;53.640;10.050;2023-04-28T01:31:55;101668.88;;;2.99;100.00
23574;BME280;11965;53.640;10.050;2023-04-28T01:34:22;101661.91;;;2.95;100.00
23574;BME280;11965;53.640;10.050;2023-04-28T01:36:49;101658.44;;;2.93;100.00
23574;BME280;11965;53.640;10.050;2023-04-28T01:39:16;101649.22;;;2.83;100.00
23574;BME280;11965;53.640;10.050;2023-04-28T01:41:45;101658.31;;;2.83;100.00
23574;BME280;11965;53.640;10.050;2023-04-28T01:44:12;101659.41;;;2.81;100.00
23574;BME280;11965;53.640;10.050;2023-04-28T01:46:39;101661.66;;;2.76;100.00
23574;BME280;11965;53.640;10.050;2023-04-28T01:49:06;101657.03;;;2.76;100.00
23574;BME280;11965;53.640;10.050;2023-04-28T01:51:33;101654.06;;;2.68;100.00
23574;BME280;11965;53.640;10.050;2023-04-28T01:54:01;101654.19;;;2.67;100.00
23574;BME280;11965;53.640;10.050;2023-04-28T01:56:28;101645.25;;;2.64;100.00
23574;BME280;11965;53.640;10.050;2023-04-28T01:58:58;101646.72;;;2.57;100.00
23574;BME280;11965;53.640;10.050;2023-04-28T02:01:25;101646.97;;;2.54;100.00
23574;BME280;11965;53.640;10.050;2023-04-28T02:03:52;101646.00;;;2.55;100.00
23574;BME280;11965;53.640;10.050;2023-04-28T02:06:20;101648.84;;;2.54;100.00
23574;BME280;11965;53.640;10.050;2023-04-28T02:08:47;101640.97;;;2.49;100.00
23574;BME280;11965;53.640;10.050;2023-04-28T02:11:14;101638.50;;;2.46;100.00
23574;BME280;11965;53.640;10.050;2023-04-28T02:13:41;101634.28;;;2.42;100.00
23574;BME280;11965;53.640;10.050;2023-04-28T02:16:09;101637.03;;;2.42;100.00
23574;BME280;11965;53.640;10.050;2023-04-28T02:18:36;101633.78;;;2.37;100.00
23574;BME280;11965;53.640;10.050;2023-04-28T02:21:08;101624.31;;;2.30;100.00
23574;BME280;11965;53.640;10.050;2023-04-28T02:23:36;101631.41;;;2.32;100.00
23574;BME280;11965;53.640;10.050;2023-04-28T02:26:04;101620.81;;;2.28;100.00
23574;BME280;11965;53.640;10.050;2023-04-28T02:28:31;101614.84;;;2.22;100.00
23574;BME280;11965;53.640;10.050;2023-04-28T02:31:06;101619.44;;;2.22;100.00
23574;BME280;11965;53.640;10.050;2023-04-28T02:33:35;101613.59;;;2.15;100.00
23574;BME280;11965;53.640;10.050;2023-04-28T02:36:06;101611.59;;;2.17;100.00
23574;BME280;11965;53.640;10.050;2023-04-28T02:38:34;101609.84;;;2.16;100.00
23574;BME280;11965;53.640;10.050;2023-04-28T02:41:03;101605.50;;;2.14;100.00
23574;BME280;11965;53.640;10.050;2023-04-28T02:43:31;101611.09;;;2.12;100.00
23574;BME280;11965;53.640;10.050;2023-04-28T02:45:58;101609.59;;;2.08;100.00
23574;BME280;11965;53.640;10.050;2023-04-28T02:48:26;101600.63;;;2.06;100.00
23574;BME280;11965;53.640;10.050;2023-04-28T02:50:55;101607.47;;;2.01;100.00
23574;BME280;11965;53.640;10.050;2023-04-28T02:53:22;101608.06;;;1.93;100.00
23574;BME280;11965;53.640;10.050;2023-04-28T02:55:49;101593.78;;;1.89;100.00
23574;BME280;11965;53.640;10.050;2023-04-28T02:58:16;101593.34;;;1.83;100.00
23574;BME280;11965;53.640;10.050;2023-04-28T03:00:43;101594.50;;;1.80;100.00
23574;BME280;11965;53.640;10.050;2023-04-28T03:03:12;101590.75;;;1.81;100.00
23574;BME280;11965;53.640;10.050;2023-04-28T03:05:39;101583.78;;;1.77;100.00
23574;BME280;11965;53.640;10.050;2023-04-28T03:08:07;101577.34;;;1.78;100.00
23574;BME280;11965;53.640;10.050;2023-04-28T03:10:34;101578.69;;;1.72;100.00
23574;BME280;11965;53.640;10.050;2023-04-28T03:13:02;101568.00;;;1.69;100.00
23574;BME280;11965;53.640;10.050;2023-04-28T03:15:29;101563.03;;;1.74;100.00
23574;BME280;11965;53.640;10.050;2023-04-28T03:17:56;101563.25;;;1.71;100.00
23574;BME280;11965;53.640;10.050;2023-04-28T03:20:26;101560.53;;;1.71;100.00
23574;BME280;11965;53.640;10.050;2023-04-28T03:22:55;101555.31;;;1.68;100.00
23574;BME280;11965;53.640;10.050;2023-04-28T03:25:26;101544.88;;;1.62;100.00
23574;BME280;11965;53.640;10.050;2023-04-28T03:27:53;101554.03;;;1.61;100.00
23574;BME280;11965;53.640;10.050;2023-04-28T03:30:21;101544.25;;;1.59;100.00
23574;BME280;11965;53.640;10.050;2023-04-28T03:32:47;101544.00;;;1.62;100.00
23574;BME280;11965;53.640;10.050;2023-04-28T03:35:14;101546.09;;;1.58;100.00
23574;BME280;11965;53.640;10.050;2023-04-28T03:37:42;101551.69;;;1.57;100.00
23574;BME280;11965;53.640;10.050;2023-04-28T03:40:10;101548.81;;;1.58;100.00
23574;BME280;11965;53.640;10.050;2023-04-28T03:43:01;101543.34;;;1.58;100.00
23574;BME280;11965;53.640;10.050;2023-04-28T03:45:33;101538.13;;;1.55;100.00
23574;BME280;11965;53.640;10.050;2023-04-28T03:48:00;101538.63;;;1.49;100.00
23574;BME280;11965;53.640;10.050;2023-04-28T03:50:27;101527.16;;;1.44;100.00
23574;BME280;11965;53.640;10.050;2023-04-28T03:52:54;101536.13;;;1.46;100.00
23574;BME280;11965;53.640;10.050;2023-04-28T03:55:21;101534.38;;;1.45;100.00
23574;BME280;11965;53.640;10.050;2023-04-28T03:57:50;101535.13;;;1.47;100.00
23574;BME280;11965;53.640;10.050;2023-04-28T04:00:19;101532.16;;;1.50;100.00
23574;BME280;11965;53.640;10.050;2023-04-28T04:02:47;101523.44;;;1.45;100.00
23574;BME280;11965;53.640;10.050;2023-04-28T04:05:15;101513.28;;;1.47;100.00
23574;BME280;11965;53.640;10.050;2023-04-28T04:07:42;101502.69;;;1.42;100.00
23574;BME280;11965;53.640;10.050;2023-04-28T04:10:09;101514.13;;;1.47;100.00
23574;BME280;11965;53.640;10.050;2023-04-28T04:12:39;101518.50;;;1.50;100.00
23574;BME280;11965;53.640;10.050;2023-04-28T04:15:07;101509.31;;;1.51;100.00
23574;BME280;11965;53.640;10.050;2023-04-28T04:17:36;101490.94;;;1.53;100.00
23574;BME280;11965;53.640;10.050;2023-04-28T04:20:04;101504.84;;;1.61;100.00
23574;BME280;11965;53.640;10.050;2023-04-28T04:22:31;101503.53;;;1.67;100.00
23574;BME280;11965;53.640;10.050;2023-04-28T04:24:58;101499.53;;;1.71;100.00
23574;BME280;11965;53.640;10.050;2023-04-28T04:27:25;101504.31;;;1.80;100.00
23574;BME280;11965;53.640;10.050;2023-04-28T04:29:53;101508.16;;;1.89;100.00
23574;BME280;11965;53.640;10.050;2023-04-28T04:32:19;101504.16;;;1.93;100.00
23574;BME280;11965;53.640;10.050;2023-04-28T04:34:49;101499.97;;;2.00;100.00
23574;BME280;11965;53.640;10.050;2023-04-28T04:37:17;101493.75;;;2.09;100.00
23574;BME280;11965;53.640;10.050;2023-04-28T04:39:50;101491.91;;;2.21;100.00
23574;BME280;11965;53.640;10.050;2023-04-28T04:42:17;101490.53;;;2.27;100.00
23574;BME280;11965;53.640;10.050;2023-04-28T04:44:46;101490.00;;;2.55;100.00
23574;BME280;11965;53.640;10.050;2023-04-28T04:47:25;101485.63;;;2.64;100.00
23574;BME280;11965;53.640;10.050;2023-04-28T04:49:54;101484.22;;;2.81;100.00
23574;BME280;11965;53.640;10.050;2023-04-28T04:52:21;101486.78;;;2.94;100.00
23574;BME280;11965;53.640;10.050;2023-04-28T04:54:50;101471.44;;;3.02;100.00
23574;BME280;11965;53.640;10.050;2023-04-28T04:57:17;101468.91;;;3.10;100.00
23574;BME280;11965;53.640;10.050;2023-04-28T05:00:06;101471.22;;;3.26;100.00
23574;BME280;11965;53.640;10.050;2023-04-28T05:02:34;101461.19;;;3.37;100.00
23574;BME280;11965;53.640;10.050;2023-04-28T05:05:05;101468.88;;;3.43;100.00
23574;BME280;11965;53.640;10.050;2023-04-28T05:07:33;101464.47;;;3.51;100.00
23574;BME280;11965;53.640;10.050;2023-04-28T05:10:01;101441.47;;;3.43;100.00
23574;BME280;11965;53.640;10.050;2023-04-28T05:12:29;101460.94;;;3.61;100.00
23574;BME280;11965;53.640;10.050;2023-04-28T05:14:56;101450.63;;;3.74;100.00
23574;BME280;11965;53.640;10.050;2023-04-28T05:17:22;101453.97;;;3.78;100.00
23574;BME280;11965;53.640;10.050;2023-04-28T05:19:49;101433.75;;;3.79;100.00
23574;BME280;11965;53.640;10.050;2023-04-28T05:22:18;101447.97;;;3.93;100.00
23574;BME280;11965;53.640;10.050;2023-04-28T05:24:45;101444.84;;;3.98;100.00
23574;BME280;11965;53.640;10.050;2023-04-28T05:27:12;101444.53;;;4.32;100.00
23574;BME280;11965;53.640;10.050;2023-04-28T05:29:39;101444.25;;;4.35;100.00
23574;BME280;11965;53.640;10.050;2023-04-28T05:32:06;101456.13;;;4.35;100.00
23574;BME280;11965;53.640;10.050;2023-04-28T05:34:33;101441.38;;;4.36;100.00
23574;BME280;11965;53.640;10.050;2023-04-28T05:37:00;101449.19;;;4.51;100.00
23574;BME280;11965;53.640;10.050;2023-04-28T05:39:30;101444.59;;;4.61;97.25
23574;BME280;11965;53.640;10.050;2023-04-28T05:42:00;101448.09;;;4.82;91.29
23574;BME280;11965;53.640;10.050;2023-04-28T05:44:29;101437.00;;;5.03;90.50
23574;BME280;11965;53.640;10.050;2023-04-28T05:46:57;101438.28;;;5.09;88.96
23574;BME280;11965;53.640;10.050;2023-04-28T05:49:26;101442.22;;;5.16;89.38
23574;BME280;11965;53.640;10.050;2023-04-28T05:51:53;101430.75;;;5.30;87.73
23574;BME280;11965;53.640;10.050;2023-04-28T05:54:22;101427.44;;;5.37;87.46
23574;BME280;11965;53.640;10.050;2023-04-28T05:56:53;101406.16;;;5.48;83.72
23574;BME280;11965;53.640;10.050;2023-04-28T05:59:20;101421.16;;;5.64;83.22
23574;BME280;11965;53.640;10.050;2023-04-28T06:01:47;101413.00;;;5.72;84.26
23574;BME280;11965;53.640;10.050;2023-04-28T06:04:15;101413.84;;;5.92;77.99
23574;BME280;11965;53.640;10.050;2023-04-28T06:06:42;101416.13;;;6.06;78.30
23574;BME280;11965;53.640;10.050;2023-04-28T06:09:09;101416.50;;;6.21;77.89
23574;BME280;11965;53.640;10.050;2023-04-28T06:11:35;101422.81;;;6.31;76.40
23574;BME280;11965;53.640;10.050;2023-04-28T06:14:04;101403.16;;;6.44;74.22
23574;BME280;11965;53.640;10.050;2023-04-28T06:16:31;101403.94;;;6.64;72.95
23574;BME280;11965;53.640;10.050;2023-04-28T06:18:57;101412.03;;;6.66;73.98
23574;BME280;11965;53.640;10.050;2023-04-28T06:21:25;101408.34;;;6.75;72.63
23574;BME280;11965;53.640;10.050;2023-04-28T06:23:53;101402.34;;;6.79;71.75
23574;BME280;11965;53.640;10.050;2023-04-28T06:26:20;101391.13;;;6.91;68.18
23574;BME280;11965;53.640;10.050;2023-04-28T06:28:47;101406.22;;;7.04;68.67
23574;BME280;11965;53.640;10.050;2023-04-28T06:31:16;101412.81;;;7.12;69.54
23574;BME280;11965;53.640;10.050;2023-04-28T06:33:43;101410.13;;;7.20;66.97
23574;BME280;11965;53.640;10.050;2023-04-28T06:36:10;101404.00;;;7.26;66.49
23574;BME280;11965;53.640;10.050;2023-04-28T06:38:38;101398.56;;;7.34;68.94
23574;BME280;11965;53.640;10.050;2023-04-28T06:41:05;101406.97;;;7.50;65.25
23574;BME280;11965;53.640;10.050;2023-04-28T06:43:32;101399.44;;;7.61;68.63
23574;BME280;11965;53.640;10.050;2023-04-28T06:46:13;101402.75;;;7.90;65.46
23574;BME280;11965;53.640;10.050;2023-04-28T06:48:42;101398.50;;;8.04;63.95
23574;BME280;11965;53.640;10.050;2023-04-28T06:51:15;101386.78;;;8.10;62.11
23574;BME280;11965;53.640;10.050;2023-04-28T06:53:42;101388.75;;;8.26;62.28
23574;BME280;11965;53.640;10.050;2023-04-28T06:56:08;101384.19;;;8.43;63.00
23574;BME280;11965;53.640;10.050;2023-04-28T06:58:35;101388.72;;;8.52;62.12
23574;BME280;11965;53.640;10.050;2023-04-28T07:01:02;101377.69;;;8.60;59.45
23574;BME280;11965;53.640;10.050;2023-04-28T07:03:30;101380.81;;;8.74;60.27
23574;BME280;11965;53.640;10.050;2023-04-28T07:05:58;101371.00;;;8.88;61.14
23574;BME280;11965;53.640;10.050;2023-04-28T07:08:25;101371.50;;;8.99;59.66
23574;BME280;11965;53.640;10.050;2023-04-28T07:10:54;101375.84;;;9.18;59.09
23574;BME280;11965;53.640;10.050;2023-04-28T07:13:21;101380.00;;;9.14;58.80
23574;BME280;11965;53.640;10.050;2023-04-28T07:15:48;101375.84;;;9.10;55.99
23574;BME280;11965;53.640;10.050;2023-04-28T07:18:15;101369.66;;;9.08;57.03
23574;BME280;11965;53.640;10.050;2023-04-28T07:20:41;101368.94;;;9.22;57.43
23574;BME280;11965;53.640;10.050;2023-04-28T07:23:10;101364.25;;;9.31;58.34
23574;BME280;11965;53.640;10.050;2023-04-28T07:25:36;101370.66;;;9.32;56.02
23574;BME280;11965;53.640;10.050;2023-04-28T07:28:06;101363.38;;;9.47;53.86
23574;BME280;11965;53.640;10.050;2023-04-28T07:30:34;101365.28;;;9.55;58.50
23574;BME280;11965;53.640;10.050;2023-04-28T07:33:01;101354.56;;;9.51;55.41
23574;BME280;11965;53.640;10.050;2023-04-28T07:35:28;101349.50;;;9.71;53.71
23574;BME280;11965;53.640;10.050;2023-04-28T07:37:55;101348.78;;;9.78;54.52
23574;BME280;11965;53.640;10.050;2023-04-28T07:40:23;101339.75;;;9.92;52.89
23574;BME280;11965;53.640;10.050;2023-04-28T07:42:50;101349.56;;;10.11;52.57
23574;BME280;11965;53.640;10.050;2023-04-28T07:45:17;101348.28;;;10.30;52.26
23574;BME280;11965;53.640;10.050;2023-04-28T07:47:44;101347.72;;;10.43;50.52
23574;BME280;11965;53.640;10.050;2023-04-28T07:50:11;101346.81;;;10.42;50.86
23574;BME280;11965;53.640;10.050;2023-04-28T07:52:38;101339.84;;;10.54;50.97
23574;BME280;11965;53.640;10.050;2023-04-28T07:55:05;101344.78;;;10.67;49.82
23574;BME280;11965;53.640;10.050;2023-04-28T07:57:34;101326.44;;;10.89;50.93
23574;BME280;11965;53.640;10.050;2023-04-28T08:00:02;101328.69;;;11.09;47.55
23574;BME280;11965;53.640;10.050;2023-04-28T08:02:37;101331.91;;;11.20;52.21
23574;BME280;11965;53.640;10.050;2023-04-28T08:05:04;101332.69;;;11.29;49.92
23574;BME280;11965;53.640;10.050;2023-04-28T08:07:32;101335.84;;;11.41;47.47
23574;BME280;11965;53.640;10.050;2023-04-28T08:09:59;101331.91;;;11.35;46.10
23574;BME280;11965;53.640;10.050;2023-04-28T08:12:26;101337.47;;;11.35;47.01
23574;BME280;11965;53.640;10.050;2023-04-28T08:14:55;101330.34;;;11.56;45.75
23574;BME280;11965;53.640;10.050;2023-04-28T08:17:22;101318.38;;;11.70;46.03
23574;BME280;11965;53.640;10.050;2023-04-28T08:19:49;101326.06;;;11.83;47.60
23574;BME280;11965;53.640;10.050;2023-04-28T08:22:16;101315.44;;;11.86;46.39
23574;BME280;11965;53.640;10.050;2023-04-28T08:24:42;101329.03;;;12.11;46.61
23574;BME280;11965;53.640;10.050;2023-04-28T08:27:09;101314.63;;;12.22;46.22
23574;BME280;11965;53.640;10.050;2023-04-28T08:29:37;101309.91;;;12.37;44.96
23574;BME280;11965;53.640;10.050;2023-04-28T08:32:06;101307.13;;;12.37;43.13
23574;BME280;11965;53.640;10.050;2023-04-28T08:34:33;101310.38;;;12.41;43.18
23574;BME280;11965;53.640;10.050;2023-04-28T08:37:00;101312.41;;;12.47;42.43
23574;BME280;11965;53.640;10.050;2023-04-28T08:39:27;101309.44;;;12.34;43.73
23574;BME280;11965;53.640;10.050;2023-04-28T08:41:55;101311.38;;;12.33;43.57
23574;BME280;11965;53.640;10.050;2023-04-28T08:44:22;101305.03;;;12.25;43.86
23574;BME280;11965;53.640;10.050;2023-04-28T08:46:53;101306.72;;;12.55;45.29
23574;BME280;11965;53.640;10.050;2023-04-28T08:49:33;101310.47;;;12.48;44.24
23574;BME280;11965;53.640;10.050;2023-04-28T08:52:02;101308.88;;;12.38;44.97
23574;BME280;11965;53.640;10.050;2023-04-28T08:54:37;101312.53;;;12.60;44.06
23574;BME280;11965;53.640;10.050;2023-04-28T08:57:07;101295.25;;;12.65;43.11
23574;BME280;11965;53.640;10.050;2023-04-28T08:59:37;101297.66;;;12.68;44.44
23574;BME280;11965;53.640;10.050;2023-04-28T09:02:06;101295.72;;;12.47;44.50
23574;BME280;11965;53.640;10.050;2023-04-28T09:04:35;101289.19;;;12.40;43.91
23574;BME280;11965;53.640;10.050;2023-04-28T09:07:02;101294.97;;;12.38;43.45
23574;BME280;11965;53.640;10.050;2023-04-28T09:09:29;101291.97;;;12.40;44.00
23574;BME280;11965;53.640;10.050;2023-04-28T09:11:58;101278.53;;;12.44;44.57
23574;BME280;11965;53.640;10.050;2023-04-28T09:14:26;101276.66;;;12.66;43.35
23574;BME280;11965;53.640;10.050;2023-04-28T09:16:54;101274.22;;;13.05;45.60
23574;BME280;11965;53.640;10.050;2023-04-28T09:19:21;101255.13;;;12.96;43.45
23574;BME280;11965;53.640;10.050;2023-04-28T09:21:52;101270.59;;;13.05;43.79
23574;BME280;11965;53.640;10.050;2023-04-28T09:24:27;101258.69;;;13.39;43.93
23574;BME280;11965;53.640;10.050;2023-04-28T09:26:54;101258.09;;;13.44;42.99
23574;BME280;11965;53.640;10.050;2023-04-28T09:29:21;101258.97;;;13.44;42.30
23574;BME280;11965;53.640;10.050;2023-04-28T09:31:48;101255.31;;;13.44;40.66
23574;BME280;11965;53.640;10.050;2023-04-28T09:34:15;101245.47;;;13.20;42.04
23574;BME280;11965;53.640;10.050;2023-04-28T09:36:42;101245.78;;;13.32;43.50
23574;BME280;11965;53.640;10.050;2023-04-28T09:39:11;101251.97;;;13.55;43.47
23574;BME280;11965;53.640;10.050;2023-04-28T09:41:39;101253.97;;;13.68;45.06
23574;BME280;11965;53.640;10.050;2023-04-28T09:44:11;101244.78;;;13.74;44.55
23574;BME280;11965;53.640;10.050;2023-04-28T09:46:39;101244.81;;;13.81;44.12
23574;BME280;11965;53.640;10.050;2023-04-28T09:49:09;101246.72;;;13.80;43.61
23574;BME280;11965;53.640;10.050;2023-04-28T09:51:36;101254.66;;;13.77;43.06
23574;BME280;11965;53.640;10.050;2023-04-28T09:54:03;101238.13;;;13.68;44.32
23574;BME280;11965;53.640;10.050;2023-04-28T09:56:34;101253.19;;;13.46;43.55
23574;BME280;11965;53.640;10.050;2023-04-28T09:59:03;101253.53;;;13.36;43.88
23574;BME280;11965;53.640;10.050;2023-04-28T10:01:34;101246.50;;;13.40;42.78
23574;BME280;11965;53.640;10.050;2023-04-28T10:04:03;101243.69;;;13.68;42.02
23574;BME280;11965;53.640;10.050;2023-04-28T10:06:33;101239.03;;;13.82;45.24
23574;BME280;11965;53.640;10.050;2023-04-28T10:09:02;101229.88;;;13.95;41.63
23574;BME280;11965;53.640;10.050;2023-04-28T10:11:29;101230.41;;;13.70;41.53
23574;BME280;11965;53.640;10.050;2023-04-28T10:13:58;101226.47;;;13.52;42.39
23574;BME280;11965;53.640;10.050;2023-04-28T10:16:30;101210.63;;;13.59;44.54
23574;BME280;11965;53.640;10.050;2023-04-28T10:18:57;101210.63;;;14.07;43.89
23574;BME280;11965;53.640;10.050;2023-04-28T10:21:27;101211.22;;;13.89;43.21
23574;BME280;11965;53.640;10.050;2023-04-28T10:24:09;101209.00;;;13.71;43.15
23574;BME280;11965;53.640;10.050;2023-04-28T10:27:06;101205.41;;;13.90;43.50
23574;BME280;11965;53.640;10.050;2023-04-28T10:29:35;101202.22;;;13.93;41.15
23574;BME280;11965;53.640;10.050;2023-04-28T10:32:22;101191.88;;;13.81;45.12
23574;BME280;11965;53.640;10.050;2023-04-28T10:34:50;101191.28;;;13.92;44.04
23574;BME280;11965;53.640;10.050;2023-04-28T10:37:17;101189.19;;;14.01;46.29
23574;BME280;11965;53.640;10.050;2023-04-28T10:42:55;101185.03;;;13.83;43.72
23574;BME280;11965;53.640;10.050;2023-04-28T10:46:01;101180.69;;;13.67;42.50
23574;BME280;11965;53.640;10.050;2023-04-28T10:49:03;101178.16;;;13.79;44.96
23574;BME280;11965;53.640;10.050;2023-04-28T10:51:34;101174.16;;;13.95;41.43
23574;BME280;11965;53.640;10.050;2023-04-28T10:54:18;101168.59;;;14.02;41.42
23574;BME280;11965;53.640;10.050;2023-04-28T10:57:14;101170.97;;;14.11;40.79
23574;BME280;11965;53.640;10.050;2023-04-28T10:59:41;101159.38;;;14.01;44.83
23574;BME280;11965;53.640;10.050;2023-04-28T11:02:39;101173.75;;;14.05;41.83
23574;BME280;11965;53.640;10.050;2023-04-28T11:05:13;101159.75;;;13.85;41.70
23574;BME280;11965;53.640;10.050;2023-04-28T11:11:19;101162.03;;;14.29;43.09
23574;BME280;11965;53.640;10.050;2023-04-28T11:13:48;101157.34;;;14.63;39.75
23574;BME280;11965;53.640;10.050;2023-04-28T11:16:17;101165.44;;;14.31;42.57
23574;BME280;11965;53.640;10.050;2023-04-28T11:19:01;101157.75;;;14.47;42.64
23574;BME280;11965;53.640;10.050;2023-04-28T11:21:30;101158.00;;;14.72;42.94
23574;BME280;11965;53.640;10.050;2023-04-28T11:23:58;101149.19;;;15.08;41.95
23574;BME280;11965;53.640;10.050;2023-04-28T11:26:26;101147.34;;;15.54;42.15
23574;BME280;11965;53.640;10.050;2023-04-28T11:28:55;101149.13;;;15.28;42.95
23574;BME280;11965;53.640;10.050;2023-04-28T11:31:24;101146.19;;;14.90;41.99
23574;BME280;11965;53.640;10.050;2023-04-28T11:34:04;101141.25;;;14.92;42.16
23574;BME280;11965;53.640;10.050;2023-04-28T11:36:33;101132.66;;;15.00;39.48
23574;BME280;11965;53.640;10.050;2023-04-28T11:39:02;101131.78;;;15.13;40.28
23574;BME280;11965;53.640;10.050;2023-04-28T11:41:35;101135.19;;;15.15;39.15
23574;BME280;11965;53.640;10.050;2023-04-28T11:44:09;101125.81;;;14.83;40.99
23574;BME280;11965;53.640;10.050;2023-04-28T11:46:43;101127.09;;;14.87;42.26
23574;BME280;11965;53.640;10.050;2023-04-28T11:49:12;101118.66;;;15.20;41.39
23574;BME280;11965;53.640;10.050;2023-04-28T11:51:41;101109.53;;;15.44;39.95
23574;BME280;11965;53.640;10.050;2023-04-28T11:54:10;101115.31;;;15.56;40.59
23574;BME280;11965;53.640;10.050;2023-04-28T11:56:40;101112.66;;;15.81;40.18
23574;BME280;11965;53.640;10.050;2023-04-28T11:59:08;101108.19;;;15.67;40.30
23574;BME280;11965;53.640;10.050;2023-04-28T12:01:44;101103.00;;;15.77;39.37
23574;BME280;11965;53.640;10.050;2023-04-28T12:04:26;101102.25;;;15.50;40.38
23574;BME280;11965;53.640;10.050;2023-04-28T12:07:00;101117.66;;;15.59;40.21
23574;BME280;11965;53.640;10.050;2023-04-28T12:09:28;101107.97;;;14.97;42.15
23574;BME280;11965;53.640;10.050;2023-04-28T12:11:56;101100.47;;;14.84;42.49
23574;BME280;11965;53.640;10.050;2023-04-28T12:14:23;101105.53;;;15.20;41.83
23574;BME280;11965;53.640;10.050;2023-04-28T12:16:51;101103.44;;;14.96;42.92
23574;BME280;11965;53.640;10.050;2023-04-28T12:19:19;101113.31;;;15.12;42.97
23574;BME280;11965;53.640;10.050;2023-04-28T12:22:01;101102.84;;;14.61;42.69
23574;BME280;11965;53.640;10.050;2023-04-28T12:24:29;101096.63;;;14.58;42.25
23574;BME280;11965;53.640;10.050;2023-04-28T12:27:14;101096.59;;;14.85;42.54
23574;BME280;11965;53.640;10.050;2023-04-28T12:29:42;101093.19;;;14.63;44.28
23574;BME280;11965;53.640;10.050;2023-04-28T12:32:11;101091.47;;;14.82;42.63
23574;BME280;11965;53.640;10.050;2023-04-28T12:34:40;101088.47;;;14.44;43.81
23574;BME280;11965;53.640;10.050;2023-04-28T12:37:08;101076.00;;;14.20;45.43
23574;BME280;11965;53.640;10.050;2023-04-28T12:39:35;101076.44;;;14.36;43.71
23574;BME280;11965;53.640;10.050;2023-04-28T12:42:03;101069.56;;;14.19;43.19
23574;BME280;11965;53.640;10.050;2023-04-28T12:44:34;101071.72;;;14.50;44.08
23574;BME280;11965;53.640;10.050;2023-04-28T12:47:03;101075.16;;;14.19;43.78
23574;BME280;11965;53.640;10.050;2023-04-28T12:49:32;101073.84;;;14.08;44.17
23574;BME280;11965;53.640;10.050;2023-04-28T12:52:00;101071.72;;;14.10;44.14
23574;BME280;11965;53.640;10.050;2023-04-28T12:54:27;101062.69;;;14.02;45.21
23574;BME280;11965;53.640;10.050;2023-04-28T12:56:54;101050.47;;;13.89;43.83